St Stephan Airport LSTS

Flugplatz Daten

Name: St Stephan Airport

Ident: LSTS

Lat: 46,49739838

Long: 7,41257

Platzhöhe: 3304 ft

IataCode:

City:

Metar

2021/07/08 20:00
CYLC 082000Z 15008KT 15SM -DZ OVC006 06/06 A2961 RMK ST8 LSTSTFD OBS/NXT 121100Z SLP032

Taf

Gewünschte Webcam nicht vorhanden? Dann fügen Sie eine hinzu. Sie wird dann so schnell wie möglich freigeschaltet
Url: Title: